Arnold, Pennsylvania
Current Conditions -  °F | °C
As of 2:53 PM on Saturday 25 Oct 2014 (Local Time) from KAGC Reporting Station
Few Clouds Few Clouds  
Wind Chill: 66°   Ceiling: Unl
Heat Index: 66°   Visibility: 10mi
Dew Point: 44°   Wind: 17mph
Humidity: 45%   Direction: 230°SW
Pressure: 29.8"   Gusts: 26mph
Location:  40.5657°N, 79.707°W
Report Text: KAGC 251853Z 23015G23KT 10SM FEW050 19/07 A2980 RMK AO2 PK WND 24027/1803 SLP093 T01890067
Loading
Personal Weather Stations






























Interactive Weather Map
Tropical Storm Tracking
New forecast layout! Learn more

10-Day Weather Forecast

Advertisements
Track Severe Weather on mobile